sensor_id;sensor_type;location;lat;lon;timestamp;pressure;altitude;pressure_sealevel;temperature;humidity
31595;BME280;18200;48.726;8.892;2023-02-08T00:01:48;98630.19;;;8.07;35.71
31595;BME280;18200;48.726;8.892;2023-02-08T00:05:49;98632.28;;;7.91;35.42
31595;BME280;18200;48.726;8.892;2023-02-08T00:09:50;98623.63;;;7.80;35.33
31595;BME280;18200;48.726;8.892;2023-02-08T00:13:50;98614.25;;;7.64;35.96
31595;BME280;18200;48.726;8.892;2023-02-08T00:17:50;98616.06;;;7.50;36.42
31595;BME280;18200;48.726;8.892;2023-02-08T00:21:51;98621.25;;;7.60;37.13
31595;BME280;18200;48.726;8.892;2023-02-08T00:25:51;98619.13;;;7.95;36.07
31595;BME280;18200;48.726;8.892;2023-02-08T00:29:51;98606.91;;;7.89;36.16
31595;BME280;18200;48.726;8.892;2023-02-08T00:33:52;98608.56;;;7.84;35.54
31595;BME280;18200;48.726;8.892;2023-02-08T00:37:52;98600.75;;;7.88;34.89
31595;BME280;18200;48.726;8.892;2023-02-08T00:41:52;98597.53;;;7.72;35.30
31595;BME280;18200;48.726;8.892;2023-02-08T00:45:54;98593.28;;;7.53;35.12
31595;BME280;18200;48.726;8.892;2023-02-08T00:49:55;98602.91;;;7.35;34.77
31595;BME280;18200;48.726;8.892;2023-02-08T00:53:55;98595.25;;;7.47;34.99
31595;BME280;18200;48.726;8.892;2023-02-08T00:57:56;98600.97;;;7.41;34.84
31595;BME280;18200;48.726;8.892;2023-02-08T01:01:56;98600.50;;;7.15;35.51
31595;BME280;18200;48.726;8.892;2023-02-08T01:06:01;98606.66;;;7.34;36.06
31595;BME280;18200;48.726;8.892;2023-02-08T01:10:03;98613.88;;;7.52;36.08
31595;BME280;18200;48.726;8.892;2023-02-08T01:14:04;98619.16;;;7.39;34.97
31595;BME280;18200;48.726;8.892;2023-02-08T01:18:04;98618.78;;;7.45;35.68
31595;BME280;18200;48.726;8.892;2023-02-08T01:22:05;98613.59;;;7.35;35.41
31595;BME280;18200;48.726;8.892;2023-02-08T01:26:06;98603.53;;;7.46;35.73
31595;BME280;18200;48.726;8.892;2023-02-08T01:30:08;98612.44;;;7.41;36.03
31595;BME280;18200;48.726;8.892;2023-02-08T01:34:09;98599.44;;;7.53;35.33
31595;BME280;18200;48.726;8.892;2023-02-08T01:38:10;98592.41;;;7.57;35.37
31595;BME280;18200;48.726;8.892;2023-02-08T01:42:13;98590.53;;;7.39;34.89
31595;BME280;18200;48.726;8.892;2023-02-08T01:46:17;98594.81;;;7.40;35.27
31595;BME280;18200;48.726;8.892;2023-02-08T01:50:19;98582.09;;;7.32;35.05
31595;BME280;18200;48.726;8.892;2023-02-08T01:54:23;98581.94;;;7.42;34.80
31595;BME280;18200;48.726;8.892;2023-02-08T01:58:27;98582.31;;;6.75;35.12
31595;BME280;18200;48.726;8.892;2023-02-08T02:02:29;98579.00;;;6.83;36.10
31595;BME280;18200;48.726;8.892;2023-02-08T02:06:35;98575.22;;;7.07;35.77
31595;BME280;18200;48.726;8.892;2023-02-08T02:10:39;98570.22;;;7.01;34.95
31595;BME280;18200;48.726;8.892;2023-02-08T02:14:41;98573.31;;;6.89;36.25
31595;BME280;18200;48.726;8.892;2023-02-08T02:18:42;98564.81;;;7.06;35.08
31595;BME280;18200;48.726;8.892;2023-02-08T02:32:13;98555.97;;;6.68;35.20
31595;BME280;18200;48.726;8.892;2023-02-08T02:36:34;98560.00;;;6.13;35.90
31595;BME280;18200;48.726;8.892;2023-02-08T02:57:39;98543.84;;;6.76;36.14
31595;BME280;18200;48.726;8.892;2023-02-08T03:01:42;98549.38;;;6.37;35.50
31595;BME280;18200;48.726;8.892;2023-02-08T03:05:43;98557.44;;;6.56;34.72
31595;BME280;18200;48.726;8.892;2023-02-08T03:14:32;98558.00;;;6.29;35.70
31595;BME280;18200;48.726;8.892;2023-02-08T03:18:48;98549.81;;;6.20;35.62
31595;BME280;18200;48.726;8.892;2023-02-08T03:23:14;98542.22;;;6.33;35.88
31595;BME280;18200;48.726;8.892;2023-02-08T03:31:43;98561.50;;;6.24;36.16
31595;BME280;18200;48.726;8.892;2023-02-08T03:40:02;98561.50;;;6.24;35.22
31595;BME280;18200;48.726;8.892;2023-02-08T03:44:12;98557.84;;;6.44;35.33
31595;BME280;18200;48.726;8.892;2023-02-08T03:48:16;98567.28;;;5.74;36.29
31595;BME280;18200;48.726;8.892;2023-02-08T03:52:17;98562.31;;;5.96;35.42
31595;BME280;18200;48.726;8.892;2023-02-08T03:56:33;98555.03;;;5.73;35.75
31595;BME280;18200;48.726;8.892;2023-02-08T04:00:38;98551.06;;;6.04;35.32
31595;BME280;18200;48.726;8.892;2023-02-08T04:04:43;98552.16;;;5.65;34.70
31595;BME280;18200;48.726;8.892;2023-02-08T04:08:45;98549.59;;;5.88;36.31
31595;BME280;18200;48.726;8.892;2023-02-08T04:12:47;98548.94;;;6.01;35.82
31595;BME280;18200;48.726;8.892;2023-02-08T04:16:47;98556.44;;;5.27;36.09
31595;BME280;18200;48.726;8.892;2023-02-08T04:20:48;98545.34;;;5.87;35.88
31595;BME280;18200;48.726;8.892;2023-02-08T04:24:48;98546.28;;;6.01;36.12
31595;BME280;18200;48.726;8.892;2023-02-08T04:28:48;98549.44;;;6.03;36.00
31595;BME280;18200;48.726;8.892;2023-02-08T04:32:49;98549.19;;;5.32;35.10
31595;BME280;18200;48.726;8.892;2023-02-08T04:36:49;98546.09;;;5.59;36.32
31595;BME280;18200;48.726;8.892;2023-02-08T04:40:50;98547.53;;;5.75;35.98
31595;BME280;18200;48.726;8.892;2023-02-08T04:44:50;98544.50;;;5.19;36.30
31595;BME280;18200;48.726;8.892;2023-02-08T04:48:51;98543.97;;;5.56;36.58
31595;BME280;18200;48.726;8.892;2023-02-08T04:52:51;98543.03;;;5.37;35.97
31595;BME280;18200;48.726;8.892;2023-02-08T04:56:52;98537.34;;;5.15;36.62
31595;BME280;18200;48.726;8.892;2023-02-08T05:00:52;98539.63;;;4.88;36.73
31595;BME280;18200;48.726;8.892;2023-02-08T05:04:53;98529.47;;;4.95;36.29
31595;BME280;18200;48.726;8.892;2023-02-08T05:08:53;98520.78;;;5.23;36.75
31595;BME280;18200;48.726;8.892;2023-02-08T05:12:53;98518.19;;;5.13;36.29
31595;BME280;18200;48.726;8.892;2023-02-08T05:16:54;98512.06;;;5.12;36.28
31595;BME280;18200;48.726;8.892;2023-02-08T05:20:56;98513.72;;;5.03;36.53
31595;BME280;18200;48.726;8.892;2023-02-08T05:24:57;98517.25;;;4.94;35.90
31595;BME280;18200;48.726;8.892;2023-02-08T05:28:58;98520.06;;;4.63;37.51
31595;BME280;18200;48.726;8.892;2023-02-08T05:32:58;98510.00;;;4.50;36.63
31595;BME280;18200;48.726;8.892;2023-02-08T05:36:58;98512.03;;;4.68;36.65
31595;BME280;18200;48.726;8.892;2023-02-08T05:40:59;98514.81;;;4.43;37.44
31595;BME280;18200;48.726;8.892;2023-02-08T05:44:59;98522.84;;;4.28;36.46
31595;BME280;18200;48.726;8.892;2023-02-08T05:49:00;98524.16;;;4.31;37.19
31595;BME280;18200;48.726;8.892;2023-02-08T05:53:00;98515.41;;;4.20;37.00
31595;BME280;18200;48.726;8.892;2023-02-08T05:57:01;98532.53;;;3.44;37.61
31595;BME280;18200;48.726;8.892;2023-02-08T06:01:06;98526.09;;;4.10;38.43
31595;BME280;18200;48.726;8.892;2023-02-08T06:05:07;98530.94;;;3.83;38.25
31595;BME280;18200;48.726;8.892;2023-02-08T06:09:07;98541.00;;;4.06;37.95
31595;BME280;18200;48.726;8.892;2023-02-08T06:13:08;98538.88;;;3.98;38.03
31595;BME280;18200;48.726;8.892;2023-02-08T06:17:08;98529.84;;;3.99;37.86
31595;BME280;18200;48.726;8.892;2023-02-08T06:21:09;98529.03;;;4.04;38.42
31595;BME280;18200;48.726;8.892;2023-02-08T06:25:09;98535.13;;;4.19;38.29
31595;BME280;18200;48.726;8.892;2023-02-08T06:29:09;98538.84;;;4.18;37.64
31595;BME280;18200;48.726;8.892;2023-02-08T06:33:10;98529.00;;;4.24;37.59
31595;BME280;18200;48.726;8.892;2023-02-08T06:37:10;98534.13;;;3.50;36.81
31595;BME280;18200;48.726;8.892;2023-02-08T06:41:11;98541.03;;;3.96;37.60
31595;BME280;18200;48.726;8.892;2023-02-08T06:45:11;98540.75;;;3.62;37.17
31595;BME280;18200;48.726;8.892;2023-02-08T06:49:12;98547.69;;;3.58;38.06
31595;BME280;18200;48.726;8.892;2023-02-08T06:53:12;98546.34;;;3.81;37.48
31595;BME280;18200;48.726;8.892;2023-02-08T06:57:12;98542.38;;;3.68;37.78
31595;BME280;18200;48.726;8.892;2023-02-08T07:01:13;98544.22;;;3.98;36.78
31595;BME280;18200;48.726;8.892;2023-02-08T07:05:14;98549.00;;;3.81;37.63
31595;BME280;18200;48.726;8.892;2023-02-08T07:09:15;98549.97;;;4.35;37.13
31595;BME280;18200;48.726;8.892;2023-02-08T07:13:16;98547.91;;;3.97;37.86
31595;BME280;18200;48.726;8.892;2023-02-08T07:17:16;98551.03;;;4.24;37.38
31595;BME280;18200;48.726;8.892;2023-02-08T07:21:16;98553.19;;;4.27;37.18
31595;BME280;18200;48.726;8.892;2023-02-08T07:25:17;98559.59;;;4.11;37.83
31595;BME280;18200;48.726;8.892;2023-02-08T07:29:17;98562.75;;;4.23;37.77
31595;BME280;18200;48.726;8.892;2023-02-08T07:33:17;98556.91;;;4.16;37.39
31595;BME280;18200;48.726;8.892;2023-02-08T07:37:18;98560.31;;;4.42;37.32
31595;BME280;18200;48.726;8.892;2023-02-08T07:41:18;98554.72;;;4.43;37.41
31595;BME280;18200;48.726;8.892;2023-02-08T07:45:19;98551.06;;;4.19;37.84
31595;BME280;18200;48.726;8.892;2023-02-08T07:49:19;98556.41;;;4.14;38.25
31595;BME280;18200;48.726;8.892;2023-02-08T07:53:19;98555.88;;;3.92;38.92
31595;BME280;18200;48.726;8.892;2023-02-08T07:57:20;98563.06;;;4.07;39.75
31595;BME280;18200;48.726;8.892;2023-02-08T08:01:21;98550.97;;;4.49;39.21
31595;BME280;18200;48.726;8.892;2023-02-08T08:05:21;98547.13;;;4.76;38.01
31595;BME280;18200;48.726;8.892;2023-02-08T08:09:22;98550.69;;;5.10;38.40
31595;BME280;18200;48.726;8.892;2023-02-08T08:13:23;98543.16;;;5.22;37.96
31595;BME280;18200;48.726;8.892;2023-02-08T08:17:23;98542.47;;;5.45;37.82
31595;BME280;18200;48.726;8.892;2023-02-08T08:21:24;98535.44;;;5.54;38.00
31595;BME280;18200;48.726;8.892;2023-02-08T08:25:24;98538.50;;;5.71;37.56
31595;BME280;18200;48.726;8.892;2023-02-08T08:29:26;98528.34;;;6.07;37.80
31595;BME280;18200;48.726;8.892;2023-02-08T08:33:26;98533.25;;;6.23;37.60
31595;BME280;18200;48.726;8.892;2023-02-08T08:37:26;98530.94;;;6.41;37.30
31595;BME280;18200;48.726;8.892;2023-02-08T08:41:27;98529.47;;;6.72;37.13
31595;BME280;18200;48.726;8.892;2023-02-08T08:45:27;98523.56;;;6.75;37.69
31595;BME280;18200;48.726;8.892;2023-02-08T08:49:28;98521.69;;;7.31;37.04
31595;BME280;18200;48.726;8.892;2023-02-08T08:53:29;98516.44;;;7.58;37.16
31595;BME280;18200;48.726;8.892;2023-02-08T08:57:29;98511.28;;;7.48;37.34
31595;BME280;18200;48.726;8.892;2023-02-08T09:01:30;98513.00;;;8.04;37.15
31595;BME280;18200;48.726;8.892;2023-02-08T09:05:30;98510.47;;;8.26;37.02
31595;BME280;18200;48.726;8.892;2023-02-08T09:09:31;98514.34;;;8.47;36.18
31595;BME280;18200;48.726;8.892;2023-02-08T09:13:32;98506.91;;;8.57;36.08
31595;BME280;18200;48.726;8.892;2023-02-08T09:17:32;98502.16;;;8.27;35.61
31595;BME280;18200;48.726;8.892;2023-02-08T09:21:33;98510.03;;;9.22;34.13
31595;BME280;18200;48.726;8.892;2023-02-08T09:25:35;98501.75;;;9.55;31.49
31595;BME280;18200;48.726;8.892;2023-02-08T09:29:36;98498.34;;;8.69;30.98
31595;BME280;18200;48.726;8.892;2023-02-08T09:33:36;98499.63;;;8.85;29.53
31595;BME280;18200;48.726;8.892;2023-02-08T09:37:37;98497.59;;;9.26;28.71
31595;BME280;18200;48.726;8.892;2023-02-08T09:42:01;98496.13;;;9.65;27.17
31595;BME280;18200;48.726;8.892;2023-02-08T09:46:10;98495.53;;;9.90;26.75
31595;BME280;18200;48.726;8.892;2023-02-08T09:50:37;98494.28;;;9.96;26.47
31595;BME280;18200;48.726;8.892;2023-02-08T09:54:48;98484.34;;;10.27;26.23
31595;BME280;18200;48.726;8.892;2023-02-08T09:58:52;98486.41;;;10.30;26.45
31595;BME280;18200;48.726;8.892;2023-02-08T10:02:56;98485.78;;;10.33;26.23
31595;BME280;18200;48.726;8.892;2023-02-08T10:06:58;98485.09;;;10.75;25.81
31595;BME280;18200;48.726;8.892;2023-02-08T10:11:40;98488.28;;;10.94;26.17
31595;BME280;18200;48.726;8.892;2023-02-08T10:16:09;98483.28;;;10.37;26.24
31595;BME280;18200;48.726;8.892;2023-02-08T10:24:31;98481.34;;;11.62;24.90
31595;BME280;18200;48.726;8.892;2023-02-08T10:28:57;98471.75;;;12.07;25.05
31595;BME280;18200;48.726;8.892;2023-02-08T10:33:13;98479.47;;;11.03;25.91
31595;BME280;18200;48.726;8.892;2023-02-08T10:41:35;98460.97;;;12.07;24.87
31595;BME280;18200;48.726;8.892;2023-02-08T10:46:11;98457.56;;;11.64;25.35
31595;BME280;18200;48.726;8.892;2023-02-08T10:50:22;98456.03;;;11.37;25.11
31595;BME280;18200;48.726;8.892;2023-02-08T10:54:24;98457.94;;;12.67;24.27
31595;BME280;18200;48.726;8.892;2023-02-08T10:58:25;98452.09;;;12.65;24.62
31595;BME280;18200;48.726;8.892;2023-02-08T11:02:32;98454.66;;;12.62;24.34
31595;BME280;18200;48.726;8.892;2023-02-08T11:06:33;98445.09;;;12.73;24.19
31595;BME280;18200;48.726;8.892;2023-02-08T11:10:34;98452.94;;;11.90;24.96
31595;BME280;18200;48.726;8.892;2023-02-08T11:14:40;98443.34;;;12.48;24.34
31595;BME280;18200;48.726;8.892;2023-02-08T11:18:48;98434.00;;;13.48;23.32
31595;BME280;18200;48.726;8.892;2023-02-08T11:22:50;98435.38;;;13.01;24.47
31595;BME280;18200;48.726;8.892;2023-02-08T11:26:51;98423.97;;;12.54;24.74
31595;BME280;18200;48.726;8.892;2023-02-08T11:31:01;98422.06;;;12.96;24.39
31595;BME280;18200;48.726;8.892;2023-02-08T11:35:25;98406.72;;;12.46;24.87
31595;BME280;18200;48.726;8.892;2023-02-08T11:39:49;98413.53;;;13.14;24.10
31595;BME280;18200;48.726;8.892;2023-02-08T11:44:00;98405.34;;;13.23;24.25
31595;BME280;18200;48.726;8.892;2023-02-08T11:48:02;98391.22;;;13.38;25.07
31595;BME280;18200;48.726;8.892;2023-02-08T11:52:06;98383.34;;;13.33;24.52
31595;BME280;18200;48.726;8.892;2023-02-08T11:56:26;98390.59;;;13.41;24.78
31595;BME280;18200;48.726;8.892;2023-02-08T12:00:37;98376.47;;;13.80;23.80
31595;BME280;18200;48.726;8.892;2023-02-08T12:04:38;98370.84;;;13.73;24.35
31595;BME280;18200;48.726;8.892;2023-02-08T12:13:00;98375.81;;;14.32;23.52
31595;BME280;18200;48.726;8.892;2023-02-08T12:17:37;98368.19;;;15.13;23.64
31595;BME280;18200;48.726;8.892;2023-02-08T12:22:16;98353.53;;;14.35;24.34
31595;BME280;18200;48.726;8.892;2023-02-08T12:26:49;98359.59;;;14.20;23.72
31595;BME280;18200;48.726;8.892;2023-02-08T12:30:56;98341.31;;;14.93;22.91
31595;BME280;18200;48.726;8.892;2023-02-08T12:35:37;98345.81;;;15.44;22.07
31595;BME280;18200;48.726;8.892;2023-02-08T12:53:04;98328.47;;;16.61;20.95
31595;BME280;18200;48.726;8.892;2023-02-08T12:57:11;98325.91;;;16.68;21.53
31595;BME280;18200;48.726;8.892;2023-02-08T13:01:17;98323.13;;;17.45;20.06
31595;BME280;18200;48.726;8.892;2023-02-08T13:05:23;98325.63;;;16.39;21.08
31595;BME280;18200;48.726;8.892;2023-02-08T13:09:47;98300.69;;;17.48;20.27
31595;BME280;18200;48.726;8.892;2023-02-08T13:14:03;98298.00;;;17.74;19.59
31595;BME280;18200;48.726;8.892;2023-02-08T13:18:32;98301.38;;;16.11;21.45
31595;BME280;18200;48.726;8.892;2023-02-08T13:22:38;98288.59;;;16.46;20.88
31595;BME280;18200;48.726;8.892;2023-02-08T13:26:39;98278.16;;;17.47;20.49
31595;BME280;18200;48.726;8.892;2023-02-08T13:30:45;98275.84;;;17.49;19.72
31595;BME280;18200;48.726;8.892;2023-02-08T13:34:54;98269.28;;;17.73;19.89
31595;BME280;18200;48.726;8.892;2023-02-08T13:38:57;98265.91;;;18.35;19.94
31595;BME280;18200;48.726;8.892;2023-02-08T13:43:06;98257.22;;;18.86;19.71
31595;BME280;18200;48.726;8.892;2023-02-08T13:47:23;98260.50;;;18.65;18.82
31595;BME280;18200;48.726;8.892;2023-02-08T13:59:38;98257.84;;;19.09;18.68
31595;BME280;18200;48.726;8.892;2023-02-08T14:03:41;98258.84;;;18.01;18.88
31595;BME280;18200;48.726;8.892;2023-02-08T14:07:43;98245.00;;;18.13;19.01
31595;BME280;18200;48.726;8.892;2023-02-08T14:11:48;98256.81;;;18.50;18.87
31595;BME280;18200;48.726;8.892;2023-02-08T14:16:26;98250.84;;;19.08;18.96
31595;BME280;18200;48.726;8.892;2023-02-08T14:20:32;98272.59;;;16.22;20.96
31595;BME280;18200;48.726;8.892;2023-02-08T14:24:58;98270.75;;;17.02;20.07
31595;BME280;18200;48.726;8.892;2023-02-08T14:29:04;98260.06;;;17.81;20.20
31595;BME280;18200;48.726;8.892;2023-02-08T14:41:43;98256.41;;;17.96;20.11
31595;BME280;18200;48.726;8.892;2023-02-08T14:45:49;98260.06;;;18.33;19.08
31595;BME280;18200;48.726;8.892;2023-02-08T14:50:00;98260.59;;;16.99;21.06
31595;BME280;18200;48.726;8.892;2023-02-08T14:54:37;98252.28;;;15.19;22.95
31595;BME280;18200;48.726;8.892;2023-02-08T14:58:47;98239.47;;;18.06;20.67
31595;BME280;18200;48.726;8.892;2023-02-08T15:03:11;98245.75;;;17.58;20.52
31595;BME280;18200;48.726;8.892;2023-02-08T15:07:49;98241.97;;;18.78;19.43
31595;BME280;18200;48.726;8.892;2023-02-08T15:12:00;98251.59;;;19.05;19.38
31595;BME280;18200;48.726;8.892;2023-02-08T15:16:03;98246.03;;;18.94;20.26
31595;BME280;18200;48.726;8.892;2023-02-08T15:20:06;98244.16;;;19.02;19.87
31595;BME280;18200;48.726;8.892;2023-02-08T15:24:21;98241.16;;;19.54;20.00
31595;BME280;18200;48.726;8.892;2023-02-08T15:28:43;98245.13;;;19.20;20.44
31595;BME280;18200;48.726;8.892;2023-02-08T15:32:44;98239.47;;;18.66;21.38
31595;BME280;18200;48.726;8.892;2023-02-08T15:36:48;98237.63;;;17.39;22.33
31595;BME280;18200;48.726;8.892;2023-02-08T15:40:59;98247.38;;;15.87;23.60
31595;BME280;18200;48.726;8.892;2023-02-08T15:45:00;98247.91;;;16.65;23.09
31595;BME280;18200;48.726;8.892;2023-02-08T15:49:02;98249.06;;;16.64;23.18
31595;BME280;18200;48.726;8.892;2023-02-08T15:53:05;98238.88;;;16.58;23.01
31595;BME280;18200;48.726;8.892;2023-02-08T16:01:25;98249.19;;;16.14;24.17
31595;BME280;18200;48.726;8.892;2023-02-08T16:05:41;98243.50;;;15.37;24.79
31595;BME280;18200;48.726;8.892;2023-02-08T16:15:41;98252.75;;;15.05;25.38
31595;BME280;18200;48.726;8.892;2023-02-08T16:19:50;98258.91;;;15.06;25.77
31595;BME280;18200;48.726;8.892;2023-02-08T16:23:58;98252.63;;;15.02;26.03
31595;BME280;18200;48.726;8.892;2023-02-08T16:28:16;98255.63;;;14.41;25.75
31595;BME280;18200;48.726;8.892;2023-02-08T16:32:33;98266.25;;;14.62;25.57
31595;BME280;18200;48.726;8.892;2023-02-08T16:36:42;98259.25;;;14.61;25.62
31595;BME280;18200;48.726;8.892;2023-02-08T16:40:45;98261.91;;;14.73;25.60
31595;BME280;18200;48.726;8.892;2023-02-08T16:45:21;98252.47;;;14.67;25.61
31595;BME280;18200;48.726;8.892;2023-02-08T16:49:21;98256.81;;;14.56;25.34
31595;BME280;18200;48.726;8.892;2023-02-08T16:53:23;98259.81;;;14.27;26.33
31595;BME280;18200;48.726;8.892;2023-02-08T16:57:46;98266.09;;;14.19;25.52
31595;BME280;18200;48.726;8.892;2023-02-08T17:01:47;98271.78;;;13.89;26.28
31595;BME280;18200;48.726;8.892;2023-02-08T17:05:49;98270.09;;;14.09;26.43
31595;BME280;18200;48.726;8.892;2023-02-08T17:09:54;98275.97;;;13.51;26.83
31595;BME280;18200;48.726;8.892;2023-02-08T17:13:56;98274.94;;;13.43;27.43
31595;BME280;18200;48.726;8.892;2023-02-08T17:17:59;98285.25;;;13.29;27.30
31595;BME280;18200;48.726;8.892;2023-02-08T17:21:59;98289.81;;;13.37;27.19
31595;BME280;18200;48.726;8.892;2023-02-08T17:26:01;98290.31;;;13.18;27.58
31595;BME280;18200;48.726;8.892;2023-02-08T17:30:02;98295.25;;;12.63;28.56
31595;BME280;18200;48.726;8.892;2023-02-08T17:34:02;98301.09;;;12.86;28.35
31595;BME280;18200;48.726;8.892;2023-02-08T17:38:04;98298.69;;;12.72;28.24
31595;BME280;18200;48.726;8.892;2023-02-08T17:42:04;98302.81;;;12.70;28.22
31595;BME280;18200;48.726;8.892;2023-02-08T17:46:10;98297.56;;;13.51;27.30
31595;BME280;18200;48.726;8.892;2023-02-08T17:50:13;98303.09;;;13.54;27.04
31595;BME280;18200;48.726;8.892;2023-02-08T17:54:13;98309.50;;;12.52;28.31
31595;BME280;18200;48.726;8.892;2023-02-08T17:58:14;98302.41;;;12.26;28.84
31595;BME280;18200;48.726;8.892;2023-02-08T18:02:15;98311.84;;;12.32;28.15
31595;BME280;18200;48.726;8.892;2023-02-08T18:06:15;98307.38;;;12.36;28.85
31595;BME280;18200;48.726;8.892;2023-02-08T18:10:15;98305.66;;;12.11;28.85
31595;BME280;18200;48.726;8.892;2023-02-08T18:14:16;98308.81;;;12.13;29.11
31595;BME280;18200;48.726;8.892;2023-02-08T18:18:17;98307.16;;;12.00;28.94
31595;BME280;18200;48.726;8.892;2023-02-08T18:22:18;98299.63;;;11.85;29.16
31595;BME280;18200;48.726;8.892;2023-02-08T18:26:22;98279.91;;;11.64;29.24
31595;BME280;18200;48.726;8.892;2023-02-08T18:30:22;98294.19;;;11.94;29.72
31595;BME280;18200;48.726;8.892;2023-02-08T18:34:24;98287.06;;;11.68;30.12
31595;BME280;18200;48.726;8.892;2023-02-08T18:38:26;98294.38;;;11.89;29.64
31595;BME280;18200;48.726;8.892;2023-02-08T18:42:26;98291.81;;;11.17;30.76
31595;BME280;18200;48.726;8.892;2023-02-08T18:46:27;98297.53;;;11.07;30.71
31595;BME280;18200;48.726;8.892;2023-02-08T18:50:28;98293.72;;;11.08;30.77
31595;BME280;18200;48.726;8.892;2023-02-08T18:54:28;98293.91;;;11.03;31.16
31595;BME280;18200;48.726;8.892;2023-02-08T18:58:30;98288.50;;;11.11;30.41
31595;BME280;18200;48.726;8.892;2023-02-08T19:02:30;98290.09;;;11.12;30.73
31595;BME280;18200;48.726;8.892;2023-02-08T19:06:34;98292.00;;;11.03;30.59
31595;BME280;18200;48.726;8.892;2023-02-08T19:10:37;98291.41;;;10.80;31.04
31595;BME280;18200;48.726;8.892;2023-02-08T19:14:38;98285.56;;;10.78;30.83
31595;BME280;18200;48.726;8.892;2023-02-08T19:18:38;98288.38;;;10.90;31.40
31595;BME280;18200;48.726;8.892;2023-02-08T19:22:39;98287.94;;;10.80;31.48
31595;BME280;18200;48.726;8.892;2023-02-08T19:26:40;98283.94;;;10.94;31.01
31595;BME280;18200;48.726;8.892;2023-02-08T19:30:40;98277.63;;;10.90;31.59
31595;BME280;18200;48.726;8.892;2023-02-08T19:34:40;98277.19;;;10.71;31.16
31595;BME280;18200;48.726;8.892;2023-02-08T19:38:41;98276.91;;;10.73;31.89
31595;BME280;18200;48.726;8.892;2023-02-08T19:42:42;98270.38;;;10.82;31.14
31595;BME280;18200;48.726;8.892;2023-02-08T19:46:48;98275.13;;;10.85;30.87
31595;BME280;18200;48.726;8.892;2023-02-08T19:50:56;98289.09;;;10.53;32.47
31595;BME280;18200;48.726;8.892;2023-02-08T19:54:57;98284.97;;;10.47;32.60
31595;BME280;18200;48.726;8.892;2023-02-08T19:58:58;98283.06;;;10.39;32.61
31595;BME280;18200;48.726;8.892;2023-02-08T20:02:58;98278.19;;;10.41;32.61
31595;BME280;18200;48.726;8.892;2023-02-08T20:06:59;98274.81;;;10.10;33.15
31595;BME280;18200;48.726;8.892;2023-02-08T20:10:59;98285.53;;;9.93;33.06
31595;BME280;18200;48.726;8.892;2023-02-08T20:14:59;98281.44;;;10.04;32.55
31595;BME280;18200;48.726;8.892;2023-02-08T20:19:00;98278.41;;;9.88;33.36
31595;BME280;18200;48.726;8.892;2023-02-08T20:23:01;98266.56;;;9.81;33.62
31595;BME280;18200;48.726;8.892;2023-02-08T20:27:03;98265.28;;;9.78;33.20
31595;BME280;18200;48.726;8.892;2023-02-08T20:31:06;98270.66;;;9.87;33.51
31595;BME280;18200;48.726;8.892;2023-02-08T20:35:06;98263.47;;;10.64;32.19
31595;BME280;18200;48.726;8.892;2023-02-08T20:39:08;98276.91;;;10.39;31.49
31595;BME280;18200;48.726;8.892;2023-02-08T20:43:10;98278.72;;;9.30;34.59
31595;BME280;18200;48.726;8.892;2023-02-08T20:47:10;98270.34;;;9.01;35.11
31595;BME280;18200;48.726;8.892;2023-02-08T20:51:15;98263.69;;;8.90;35.12
31595;BME280;18200;48.726;8.892;2023-02-08T20:55:16;98273.31;;;8.69;36.79
31595;BME280;18200;48.726;8.892;2023-02-08T20:59:16;98270.84;;;8.73;35.94
31595;BME280;18200;48.726;8.892;2023-02-08T21:03:17;98268.94;;;8.73;36.08
31595;BME280;18200;48.726;8.892;2023-02-08T21:07:17;98254.75;;;8.73;35.58
31595;BME280;18200;48.726;8.892;2023-02-08T21:11:20;98266.66;;;8.58;35.42
31595;BME280;18200;48.726;8.892;2023-02-08T21:15:20;98272.22;;;8.48;36.08
31595;BME280;18200;48.726;8.892;2023-02-08T21:19:21;98265.38;;;8.55;35.58
31595;BME280;18200;48.726;8.892;2023-02-08T21:23:22;98268.97;;;8.51;35.79
31595;BME280;18200;48.726;8.892;2023-02-08T21:27:22;98269.00;;;8.59;35.93
31595;BME280;18200;48.726;8.892;2023-02-08T21:31:25;98280.66;;;8.19;36.53
31595;BME280;18200;48.726;8.892;2023-02-08T21:35:26;98278.31;;;7.91;37.05
31595;BME280;18200;48.726;8.892;2023-02-08T21:39:26;98263.72;;;8.46;35.81
31595;BME280;18200;48.726;8.892;2023-02-08T21:43:26;98261.50;;;7.63;36.44
31595;BME280;18200;48.726;8.892;2023-02-08T21:47:27;98270.41;;;7.86;37.24
31595;BME280;18200;48.726;8.892;2023-02-08T21:51:27;98257.78;;;8.00;36.64
31595;BME280;18200;48.726;8.892;2023-02-08T21:55:46;98250.97;;;7.94;36.91
31595;BME280;18200;48.726;8.892;2023-02-08T21:59:48;98245.69;;;7.66;36.17
31595;BME280;18200;48.726;8.892;2023-02-08T22:03:49;98246.44;;;7.80;36.34
31595;BME280;18200;48.726;8.892;2023-02-08T22:07:52;98242.34;;;7.47;37.00
31595;BME280;18200;48.726;8.892;2023-02-08T22:11:55;98245.19;;;7.51;37.13
31595;BME280;18200;48.726;8.892;2023-02-08T22:15:56;98246.88;;;7.06;37.12
31595;BME280;18200;48.726;8.892;2023-02-08T22:19:58;98248.47;;;7.34;37.35
31595;BME280;18200;48.726;8.892;2023-02-08T22:23:59;98259.28;;;7.43;37.63
31595;BME280;18200;48.726;8.892;2023-02-08T22:27:59;98245.69;;;7.12;37.33
31595;BME280;18200;48.726;8.892;2023-02-08T22:31:59;98242.78;;;8.26;36.03
31595;BME280;18200;48.726;8.892;2023-02-08T22:36:05;98241.13;;;7.26;36.31
31595;BME280;18200;48.726;8.892;2023-02-08T22:40:05;98240.59;;;7.78;36.82
31595;BME280;18200;48.726;8.892;2023-02-08T22:44:06;98240.94;;;7.99;35.89
31595;BME280;18200;48.726;8.892;2023-02-08T22:48:07;98246.88;;;7.33;36.51
31595;BME280;18200;48.726;8.892;2023-02-08T22:52:09;98241.13;;;7.26;37.34
31595;BME280;18200;48.726;8.892;2023-02-08T22:56:13;98241.75;;;7.23;37.07
31595;BME280;18200;48.726;8.892;2023-02-08T23:00:14;98229.44;;;7.22;37.09
31595;BME280;18200;48.726;8.892;2023-02-08T23:04:14;98234.13;;;7.30;36.86
31595;BME280;18200;48.726;8.892;2023-02-08T23:08:17;98234.13;;;7.30;37.01
31595;BME280;18200;48.726;8.892;2023-02-08T23:12:18;98225.69;;;6.96;36.77
31595;BME280;18200;48.726;8.892;2023-02-08T23:16:18;98236.38;;;7.50;37.15
31595;BME280;18200;48.726;8.892;2023-02-08T23:20:19;98226.78;;;7.09;35.45